Time;durP1;ratioP1;P1;durP2;ratioP2;P2;SDS_P1;SDS_P2;PMS_P1;PMS_P2;Temp;Humidity;BMP_temperature;BMP_pressure;BME280_temperature;BME280_humidity;BME280_pressure;Samples;Min_cycle;Max_cycle;Signal;HPM_P1;HPM_P2
2022/11/20 00:00:42;;;;;;;9.10;3.90;;;22.40;56.40;;;;;;5020566;28;20221;-65
2022/11/20 00:03:07;;;;;;;8.05;4.15;;;22.40;56.40;;;;;;5020198;28;20170;-65
2022/11/20 00:05:33;;;;;;;7.88;3.70;;;22.50;56.40;;;;;;5032156;28;20563;-66
2022/11/20 00:07:59;;;;;;;6.75;4.00;;;22.40;56.40;;;;;;5031752;28;20029;-66
2022/11/20 00:10:24;;;;;;;7.63;3.80;;;22.50;56.40;;;;;;5040450;28;20024;-65
2022/11/20 00:12:50;;;;;;;5.97;3.67;;;22.50;56.50;;;;;;5032786;28;20109;-65
2022/11/20 00:15:16;;;;;;;7.00;3.65;;;22.40;56.50;;;;;;5030309;28;20034;-66
2022/11/20 00:17:41;;;;;;;5.80;3.20;;;22.50;56.50;;;;;;5023508;28;20037;-66
2022/11/20 00:20:07;;;;;;;6.45;4.00;;;22.50;56.50;;;;;;5042649;28;20025;-66
2022/11/20 00:22:33;;;;;;;7.10;4.07;;;22.50;56.40;;;;;;5039785;28;20118;-65
2022/11/20 00:24:58;;;;;;;6.53;3.60;;;22.40;56.30;;;;;;5034564;28;20096;-66
2022/11/20 00:27:24;;;;;;;7.35;3.80;;;22.50;56.30;;;;;;5030159;28;20423;-65
2022/11/20 00:29:50;;;;;;;6.55;3.63;;;22.50;56.40;;;;;;5022526;28;20045;-65
2022/11/20 00:32:15;;;;;;;5.63;3.65;;;22.50;56.40;;;;;;5036417;28;20476;-66
2022/11/20 00:34:41;;;;;;;6.93;3.90;;;22.50;56.40;;;;;;5029442;28;20025;-65
2022/11/20 00:37:06;;;;;;;5.82;3.20;;;22.50;56.30;;;;;;5024985;28;20045;-64
2022/11/20 00:39:32;;;;;;;7.32;4.43;;;22.50;56.40;;;;;;5026385;28;20037;-64
2022/11/20 00:41:57;;;;;;;6.45;3.80;;;22.50;56.40;;;;;;5032283;28;20365;-65
2022/11/20 00:44:23;;;;;;;6.53;3.90;;;22.50;56.40;;;;;;5034634;28;20057;-66
2022/11/20 00:46:49;;;;;;;6.40;3.47;;;22.50;56.40;;;;;;5028004;28;20473;-64
2022/11/20 00:49:14;;;;;;;7.28;4.07;;;22.50;56.40;;;;;;5028122;28;20040;-66
2022/11/20 00:51:40;;;;;;;6.43;3.53;;;22.40;56.40;;;;;;5029935;28;20445;-65
2022/11/20 00:54:06;;;;;;;6.28;3.67;;;22.40;56.40;;;;;;5027609;28;20036;-65
2022/11/20 00:56:31;;;;;;;5.95;3.47;;;22.40;56.50;;;;;;5036018;28;20038;-65
2022/11/20 00:58:59;;;;;;;6.40;3.38;;;22.40;56.50;;;;;;5033115;28;20587;-66
2022/11/20 01:01:26;;;;;;;6.25;3.30;;;22.40;56.50;;;;;;5038270;28;20492;-65
2022/11/20 01:03:54;;;;;;;6.10;3.60;;;22.40;56.60;;;;;;5037607;28;20536;-65
2022/11/20 01:06:22;;;;;;;5.80;3.20;;;22.30;56.60;;;;;;5042312;28;20415;-65
2022/11/20 01:08:49;;;;;;;6.05;3.40;;;22.30;56.60;;;;;;5036193;28;20030;-66
2022/11/20 01:11:19;;;;;;;5.90;3.13;;;22.30;56.60;;;;;;5029972;28;20388;-66
2022/11/20 01:13:46;;;;;;;5.63;3.30;;;22.30;56.70;;;;;;5030998;28;20056;-65
2022/11/20 01:16:15;;;;;;;5.97;3.15;;;22.30;56.80;;;;;;5033780;28;20539;-66
2022/11/20 01:18:44;;;;;;;6.18;3.22;;;22.30;56.70;;;;;;5038007;28;20032;-65
2022/11/20 01:21:31;;;;;;;5.75;3.15;;;22.20;56.80;;;;;;5034002;28;20485;-65
2022/11/20 01:23:59;;;;;;;5.07;3.25;;;22.20;56.80;;;;;;5033344;28;20053;-65
2022/11/20 01:26:31;;;;;;;7.00;3.35;;;22.20;56.90;;;;;;5033413;28;20434;-66
2022/11/20 01:28:57;;;;;;;6.82;3.22;;;22.20;56.90;;;;;;5030005;28;20033;-65
2022/11/20 01:31:26;;;;;;;5.40;2.90;;;22.20;56.90;;;;;;5033968;28;20171;-65
2022/11/20 01:33:55;;;;;;;4.53;2.80;;;22.20;57.00;;;;;;5031122;28;20036;-65
2022/11/20 01:36:22;;;;;;;5.35;2.97;;;22.10;56.90;;;;;;5035483;28;20409;-65
2022/11/20 01:38:48;;;;;;;4.72;3.10;;;22.10;57.00;;;;;;5033446;28;20555;-65
2022/11/20 01:43:20;;;;;;;4.55;2.60;;;22.20;57.10;;;;;;5030987;28;20025;-65
2022/11/20 01:44:01;;;;;;;4.53;3.03;;;22.10;57.10;;;;;;5022780;28;20037;-67
2022/11/20 01:46:27;;;;;;;5.88;3.13;;;22.10;57.10;;;;;;5022870;28;20024;-65
2022/11/20 01:49:02;;;;;;;5.10;3.05;;;22.10;57.20;;;;;;5018613;28;20033;-64
2022/11/20 01:51:43;;;;;;;4.53;2.65;;;22.10;57.20;;;;;;5010466;28;20029;-66
2022/11/20 01:54:13;;;;;;;4.75;2.58;;;22.00;57.20;;;;;;5044222;28;20123;-64
2022/11/20 01:56:41;;;;;;;;;;;22.00;57.20;;;;;;5034319;28;20033;-66
2022/11/20 01:59:09;;;;;;;4.13;2.50;;;22.00;57.30;;;;;;5033337;28;19971;-66
2022/11/20 02:01:34;;;;;;;4.32;2.53;;;22.00;57.30;;;;;;5044232;28;20051;-66
2022/11/20 02:04:01;;;;;;;5.30;2.80;;;22.00;57.30;;;;;;5040446;28;20022;-66
2022/11/20 02:06:32;;;;;;;4.57;2.60;;;21.90;57.50;;;;;;5023971;28;20119;-67
2022/11/20 02:08:58;;;;;;;4.03;2.53;;;21.90;57.60;;;;;;5031134;28;20029;-65
2022/11/20 02:11:23;;;;;;;3.95;2.33;;;21.90;57.70;;;;;;5037262;28;20028;-65
2022/11/20 02:13:50;;;;;;;4.45;2.50;;;21.90;57.70;;;;;;5043480;28;20021;-66
2022/11/20 02:16:21;;;;;;;3.60;2.28;;;21.90;57.80;;;;;;5036211;28;20120;-67
2022/11/20 02:18:47;;;;;;;3.97;2.67;;;21.90;57.90;;;;;;5028470;28;20493;-66
2022/11/20 02:21:27;;;;;;;4.72;2.53;;;21.90;58.00;;;;;;5020982;28;20076;-66
2022/11/20 02:24:14;;;;;;;4.68;2.50;;;21.80;58.00;;;;;;5024513;28;20109;-66
2022/11/20 02:26:53;;;;;;;4.55;2.58;;;21.80;58.00;;;;;;5035125;28;20021;-65
2022/11/20 02:29:47;;;;;;;4.07;2.70;;;21.80;58.00;;;;;;5034591;28;20518;-66
2022/11/20 02:32:34;;;;;;;4.15;2.38;;;21.80;58.10;;;;;;5013912;28;20038;-66
2022/11/20 02:35:29;;;;;;;4.63;2.88;;;21.80;58.20;;;;;;5027263;28;20508;-66
2022/11/20 02:37:56;;;;;;;5.20;3.00;;;21.70;58.10;;;;;;5034468;28;20029;-66
2022/11/20 02:40:22;;;;;;;4.03;2.53;;;21.70;58.20;;;;;;5045766;28;20037;-66
2022/11/20 02:42:51;;;;;;;4.63;2.25;;;21.70;58.20;;;;;;5043243;28;20352;-66
2022/11/20 02:45:17;;;;;;;3.72;2.33;;;21.70;58.10;;;;;;5035280;28;20174;-68
2022/11/20 02:47:42;;;;;;;4.20;2.47;;;21.70;58.10;;;;;;5038416;28;20125;-66
2022/11/20 02:50:08;;;;;;;4.53;2.50;;;21.70;58.00;;;;;;5038993;28;20021;-66
2022/11/20 02:52:34;;;;;;;3.20;2.13;;;21.70;58.00;;;;;;5036423;28;20108;-65
2022/11/20 02:55:00;;;;;;;4.13;2.00;;;21.70;58.00;;;;;;5027315;28;20033;-66
2022/11/20 02:57:26;;;;;;;4.03;2.30;;;21.70;58.00;;;;;;5028291;28;20469;-65
2022/11/20 02:59:51;;;;;;;3.85;2.30;;;21.60;57.90;;;;;;5030754;28;20041;-64
2022/11/20 03:02:17;;;;;;;3.92;2.58;;;21.60;57.90;;;;;;5033404;28;20474;-65
2022/11/20 03:04:42;;;;;;;4.28;2.40;;;21.60;57.90;;;;;;5038958;28;20094;-65
2022/11/20 03:07:08;;;;;;;4.10;2.33;;;21.60;57.90;;;;;;5031711;28;20465;-65
2022/11/20 03:09:34;;;;;;;3.53;2.22;;;21.60;57.90;;;;;;5032399;28;20030;-64
2022/11/20 03:11:59;;;;;;;3.60;2.00;;;21.60;57.90;;;;;;5030485;28;20461;-64
2022/11/20 03:14:25;;;;;;;3.40;2.05;;;21.60;57.90;;;;;;5028873;28;20041;-65
2022/11/20 03:16:51;;;;;;;4.32;2.50;;;21.50;57.90;;;;;;5039897;28;20044;-66
2022/11/20 03:19:16;;;;;;;3.75;2.22;;;21.50;57.90;;;;;;5033597;28;20057;-68
2022/11/20 03:21:42;;;;;;;3.72;2.28;;;21.50;57.90;;;;;;5034539;28;20459;-65
2022/11/20 03:24:08;;;;;;;3.55;2.13;;;21.50;57.90;;;;;;5034804;28;20025;-66
2022/11/20 03:26:33;;;;;;;4.72;2.17;;;21.50;57.90;;;;;;5013988;28;20026;-65
2022/11/20 03:29:01;;;;;;;3.00;1.80;;;21.50;58.40;;;;;;5032604;28;20033;-66
2022/11/20 03:31:34;;;;;;;3.60;2.20;;;21.50;58.00;;;;;;5037370;28;20108;-65
2022/11/20 03:34:01;;;;;;;3.60;1.92;;;21.50;57.90;;;;;;5033836;28;20030;-66
2022/11/20 03:36:28;;;;;;;3.20;1.90;;;21.40;57.90;;;;;;5039018;28;20468;-65
2022/11/20 03:38:56;;;;;;;3.25;2.00;;;21.40;57.90;;;;;;5040572;28;20445;-65
2022/11/20 03:41:30;;;;;;;3.13;1.90;;;21.40;57.90;;;;;;5017063;28;20029;-65
2022/11/20 03:43:57;;;;;;;3.20;2.00;;;21.40;57.90;;;;;;5036046;28;20030;-65
2022/11/20 03:46:23;;;;;;;4.15;2.45;;;21.40;57.90;;;;;;5035394;28;20032;-64
2022/11/20 03:48:49;;;;;;;2.92;1.85;;;21.40;57.90;;;;;;5032756;28;20034;-65
2022/11/20 03:51:21;;;;;;;4.03;2.30;;;21.40;58.00;;;;;;5036974;28;20423;-65
2022/11/20 03:53:49;;;;;;;3.40;1.98;;;21.30;58.00;;;;;;5031806;28;20387;-65
2022/11/20 03:56:17;;;;;;;3.15;1.90;;;21.30;58.00;;;;;;5037281;28;20036;-63
2022/11/20 03:58:43;;;;;;;3.38;1.92;;;21.30;58.00;;;;;;5037218;28;20071;-64
2022/11/20 04:01:17;;;;;;;3.20;1.90;;;21.30;58.00;;;;;;5023211;28;20057;-65
2022/11/20 04:03:44;;;;;;;3.45;2.10;;;21.30;58.00;;;;;;5020048;28;20029;-67
2022/11/20 04:06:15;;;;;;;3.72;2.13;;;21.30;58.00;;;;;;5035177;28;20433;-65
2022/11/20 04:08:41;;;;;;;3.00;1.90;;;21.30;58.10;;;;;;5035241;28;20095;-65
2022/11/20 04:11:15;;;;;;;3.08;1.80;;;21.30;58.10;;;;;;5029280;28;20029;-64
2022/11/20 04:13:42;;;;;;;3.47;1.80;;;21.20;58.00;;;;;;5027097;28;20055;-65
2022/11/20 04:16:09;;;;;;;3.80;2.10;;;21.20;58.00;;;;;;5027590;28;20094;-65
2022/11/20 04:18:35;;;;;;;3.03;1.80;;;21.20;58.00;;;;;;5027276;28;20037;-65
2022/11/20 04:21:02;;;;;;;3.33;2.00;;;21.20;58.60;;;;;;5013081;28;20040;-65
2022/11/20 04:23:28;;;;;;;2.90;1.60;;;21.20;58.00;;;;;;5037980;28;20068;-65
2022/11/20 04:25:54;;;;;;;3.25;2.03;;;21.20;58.00;;;;;;5040986;28;20026;-64
2022/11/20 04:28:20;;;;;;;3.50;2.30;;;21.10;58.00;;;;;;5036287;28;20033;-64
2022/11/20 04:30:45;;;;;;;3.72;2.05;;;21.20;58.10;;;;;;5030390;28;20567;-64
2022/11/20 04:33:11;;;;;;;3.00;1.60;;;21.20;58.10;;;;;;5038037;28;20029;-65
2022/11/20 04:35:37;;;;;;;2.70;1.73;;;21.20;58.20;;;;;;5045340;28;20037;-65
2022/11/20 04:38:03;;;;;;;2.75;1.80;;;21.10;58.10;;;;;;5042269;28;20025;-64
2022/11/20 04:40:29;;;;;;;3.28;1.75;;;21.10;58.10;;;;;;5028565;28;20167;-67
2022/11/20 04:42:55;;;;;;;2.80;1.63;;;21.10;58.10;;;;;;5031229;28;20444;-65
2022/11/20 04:45:22;;;;;;;3.90;1.80;;;21.10;58.10;;;;;;5033570;28;20030;-65
2022/11/20 04:47:48;;;;;;;2.67;1.83;;;21.10;58.20;;;;;;5035116;28;20401;-65
2022/11/20 04:50:14;;;;;;;3.13;1.85;;;21.10;58.20;;;;;;5032114;28;20043;-64
2022/11/20 04:52:39;;;;;;;3.10;1.85;;;21.10;58.20;;;;;;5027335;28;20112;-64
2022/11/20 04:55:06;;;;;;;3.15;1.80;;;21.10;58.20;;;;;;5025504;28;20065;-64
2022/11/20 04:57:31;;;;;;;2.75;1.70;;;21.10;58.20;;;;;;5025470;28;20091;-67
2022/11/20 04:59:57;;;;;;;2.80;1.80;;;21.10;58.70;;;;;;5033322;28;20022;-66
2022/11/20 05:02:22;;;;;;;3.20;1.65;;;21.10;58.30;;;;;;5034107;28;20542;-67
2022/11/20 05:04:48;;;;;;;3.40;1.60;;;21.00;58.20;;;;;;5029510;28;20056;-64
2022/11/20 05:07:14;;;;;;;3.53;1.70;;;21.00;58.20;;;;;;5032492;28;20017;-64
2022/11/20 05:09:39;;;;;;;3.00;1.85;;;21.00;58.20;;;;;;5037562;28;20480;-64
2022/11/20 05:12:07;;;;;;;2.67;1.60;;;21.00;58.20;;;;;;5039006;28;20119;-65
2022/11/20 05:14:33;;;;;;;3.08;1.83;;;21.00;58.20;;;;;;5040457;28;20093;-65
2022/11/20 05:16:59;;;;;;;3.13;1.55;;;21.00;58.20;;;;;;5034868;28;20029;-66
2022/11/20 05:19:25;;;;;;;2.95;1.60;;;21.00;58.20;;;;;;5039994;28;20033;-64
2022/11/20 05:21:50;;;;;;;2.72;1.77;;;21.00;58.20;;;;;;5038405;28;20108;-65
2022/11/20 05:24:16;;;;;;;2.50;1.63;;;21.00;58.30;;;;;;5027899;28;20033;-65
2022/11/20 05:26:42;;;;;;;3.05;1.80;;;21.00;58.30;;;;;;5041649;28;20097;-66
2022/11/20 05:29:13;;;;;;;2.28;1.20;;;21.00;58.30;;;;;;5035669;28;20018;-65
2022/11/20 05:31:40;;;;;;;2.35;1.48;;;21.00;58.30;;;;;;5030525;28;20078;-66
2022/11/20 05:34:06;;;;;;;2.45;1.60;;;21.00;58.30;;;;;;5032326;28;20022;-64
2022/11/20 05:36:32;;;;;;;2.25;1.45;;;21.00;58.30;;;;;;5029366;28;20025;-65
2022/11/20 05:38:58;;;;;;;2.33;1.40;;;21.00;58.30;;;;;;5037947;28;20400;-64
2022/11/20 05:41:24;;;;;;;1.90;1.30;;;20.90;58.30;;;;;;5039006;28;20036;-64
2022/11/20 05:43:50;;;;;;;2.70;1.40;;;20.90;58.30;;;;;;5040126;28;20033;-64
2022/11/20 05:46:18;;;;;;;2.25;1.20;;;20.90;58.30;;;;;;5037590;28;20377;-66
2022/11/20 05:48:45;;;;;;;3.20;1.70;;;20.90;58.30;;;;;;5036846;28;20361;-65
2022/11/20 05:51:14;;;;;;;3.53;1.58;;;20.90;58.30;;;;;;5039247;28;20261;-65
2022/11/20 05:53:40;;;;;;;3.20;1.70;;;20.90;58.30;;;;;;5037469;28;20029;-66
2022/11/20 05:56:09;;;;;;;2.20;1.30;;;20.90;58.30;;;;;;5034415;28;20075;-65
2022/11/20 05:58:36;;;;;;;2.53;1.50;;;20.90;58.30;;;;;;5042659;28;20021;-66
2022/11/20 06:01:09;;;;;;;2.63;1.70;;;20.90;58.30;;;;;;5039210;28;20026;-66
2022/11/20 06:03:35;;;;;;;2.45;1.45;;;20.90;58.30;;;;;;5030185;28;20028;-67
2022/11/20 06:06:02;;;;;;;2.20;1.30;;;20.90;58.30;;;;;;5035134;28;20028;-65
2022/11/20 06:08:28;;;;;;;2.50;1.50;;;20.90;58.30;;;;;;5035191;28;20032;-64
2022/11/20 06:10:53;;;;;;;2.63;1.40;;;20.90;58.40;;;;;;5036290;28;20025;-65
2022/11/20 06:13:19;;;;;;;2.50;1.50;;;20.80;58.30;;;;;;5036080;28;20026;-65
2022/11/20 06:15:52;;;;;;;2.60;1.50;;;20.90;58.40;;;;;;5034782;28;20040;-64
2022/11/20 06:18:18;;;;;;;2.03;1.20;;;20.80;58.30;;;;;;5042850;28;20515;-65
2022/11/20 06:20:43;;;;;;;2.33;1.30;;;20.80;58.40;;;;;;5040443;28;20053;-64
2022/11/20 06:23:09;;;;;;;2.40;1.25;;;20.80;58.40;;;;;;5037154;28;20033;-66
2022/11/20 06:25:42;;;;;;;1.73;1.10;;;20.80;58.40;;;;;;5031698;28;20017;-65
2022/11/20 06:28:08;;;;;;;1.80;1.20;;;20.80;58.40;;;;;;5040123;28;20530;-65
2022/11/20 06:30:34;;;;;;;2.03;1.20;;;20.80;58.40;;;;;;5038073;28;20039;-66
2022/11/20 06:33:00;;;;;;;2.65;1.40;;;20.80;58.40;;;;;;5038009;28;20029;-65
2022/11/20 06:35:26;;;;;;;1.60;1.20;;;20.80;58.40;;;;;;5031278;28;20041;-65
2022/11/20 06:37:51;;;;;;;2.20;1.40;;;20.80;58.50;;;;;;5024734;28;20026;-66
2022/11/20 06:40:17;;;;;;;1.80;1.15;;;20.80;58.50;;;;;;5025650;28;20033;-66
2022/11/20 06:42:42;;;;;;;2.20;1.40;;;20.70;58.40;;;;;;5031640;28;20116;-65
2022/11/20 06:45:09;;;;;;;2.42;1.45;;;20.80;58.50;;;;;;5033255;28;20128;-68
2022/11/20 06:47:34;;;;;;;2.88;1.38;;;20.70;58.50;;;;;;5028152;28;20025;-65
2022/11/20 06:50:00;;;;;;;1.73;1.20;;;20.70;58.50;;;;;;5033652;28;20032;-66
2022/11/20 06:52:26;;;;;;;2.03;1.27;;;20.70;58.50;;;;;;5021022;28;20099;-66
2022/11/20 06:54:51;;;;;;;1.77;1.15;;;20.70;58.50;;;;;;5037196;28;20179;-65
2022/11/20 06:57:17;;;;;;;1.92;1.10;;;20.70;58.60;;;;;;5042418;28;20533;-66
2022/11/20 06:59:42;;;;;;;2.83;1.40;;;20.70;58.60;;;;;;5039224;28;20030;-65
2022/11/20 07:02:12;;;;;;;2.00;1.20;;;20.70;58.60;;;;;;5035789;28;20128;-64
2022/11/20 07:04:38;;;;;;;1.98;1.30;;;20.70;58.60;;;;;;5031313;28;20033;-64
2022/11/20 07:07:04;;;;;;;2.47;1.30;;;20.70;59.10;;;;;;5036069;28;20033;-66
2022/11/20 07:09:29;;;;;;;2.28;1.30;;;20.70;58.60;;;;;;5038174;28;20022;-65
2022/11/20 07:11:55;;;;;;;1.73;1.20;;;20.70;58.60;;;;;;5031705;28;20136;-65
2022/11/20 07:14:21;;;;;;;2.42;1.48;;;20.70;58.70;;;;;;5025228;28;20021;-67
2022/11/20 07:16:46;;;;;;;2.30;1.30;;;20.70;58.70;;;;;;5023582;28;20060;-65
2022/11/20 07:19:12;;;;;;;2.40;1.35;;;20.70;58.70;;;;;;5021922;28;20037;-66
2022/11/20 07:21:37;;;;;;;2.30;1.40;;;20.70;58.70;;;;;;5036096;28;20029;-65
2022/11/20 07:24:03;;;;;;;2.80;1.30;;;20.60;58.60;;;;;;5020679;28;20040;-65
2022/11/20 07:26:29;;;;;;;1.80;1.13;;;20.70;58.70;;;;;;5034174;28;20033;-65
2022/11/20 07:28:54;;;;;;;1.75;1.10;;;20.60;58.70;;;;;;5033011;28;20029;-67
2022/11/20 07:31:20;;;;;;;2.15;1.20;;;20.60;58.70;;;;;;5034420;28;20021;-65
2022/11/20 07:33:46;;;;;;;2.20;1.30;;;20.60;58.70;;;;;;5036485;28;20422;-65
2022/11/20 07:36:12;;;;;;;3.42;1.30;;;20.60;58.70;;;;;;5038757;28;20029;-66
2022/11/20 07:38:38;;;;;;;1.63;1.08;;;20.60;58.70;;;;;;5037309;28;20051;-66
2022/11/20 07:41:03;;;;;;;2.17;1.30;;;20.60;58.70;;;;;;5034656;28;20039;-65
2022/11/20 07:43:29;;;;;;;2.30;1.30;;;20.60;58.70;;;;;;5034045;28;20033;-65
2022/11/20 07:45:56;;;;;;;2.00;1.27;;;20.60;58.70;;;;;;5034156;28;20037;-65
2022/11/20 07:48:22;;;;;;;2.40;1.33;;;20.60;58.70;;;;;;5036034;28;20040;-65
2022/11/20 07:50:47;;;;;;;1.60;1.05;;;20.60;58.70;;;;;;5025854;28;20030;-66
2022/11/20 07:53:13;;;;;;;2.17;1.23;;;20.60;58.80;;;;;;5029603;28;20503;-67
2022/11/20 07:55:39;;;;;;;1.95;1.20;;;20.60;58.80;;;;;;5020129;28;20032;-66
2022/11/20 07:58:05;;;;;;;2.25;1.30;;;20.60;58.80;;;;;;5031640;28;20033;-66
2022/11/20 08:00:31;;;;;;;1.98;1.20;;;20.60;58.80;;;;;;5038020;28;20362;-64
2022/11/20 08:02:56;;;;;;;1.83;1.10;;;20.60;58.80;;;;;;5037445;28;20084;-65
2022/11/20 08:05:23;;;;;;;2.00;1.30;;;20.50;58.80;;;;;;5032454;28;20030;-66
2022/11/20 08:07:49;;;;;;;2.63;1.42;;;20.60;58.80;;;;;;5029208;28;20148;-65
2022/11/20 08:10:16;;;;;;;1.88;1.20;;;20.60;58.80;;;;;;5038516;28;20108;-65
2022/11/20 08:15:32;;;;;;;1.88;1.17;;;20.60;58.80;;;;;;5034860;28;20060;-65
2022/11/20 08:18:09;;;;;;;2.40;1.33;;;20.60;58.80;;;;;;5027973;28;20520;-65
2022/11/20 08:20:35;;;;;;;2.20;1.23;;;20.60;58.90;;;;;;5006808;28;20508;-65
2022/11/20 08:23:02;;;;;;;2.00;1.10;;;20.50;58.80;;;;;;5044899;28;20040;-65
2022/11/20 08:25:29;;;;;;;1.90;1.17;;;20.50;58.90;;;;;;5022790;28;20039;-65
2022/11/20 08:28:01;;;;;;;1.83;1.13;;;20.50;58.80;;;;;;5034554;28;20026;-65
2022/11/20 08:30:27;;;;;;;1.60;1.17;;;20.50;58.80;;;;;;5037686;28;20024;-66
2022/11/20 08:32:53;;;;;;;2.13;1.20;;;20.50;58.80;;;;;;5039705;28;20087;-66
2022/11/20 08:35:19;;;;;;;1.80;1.10;;;20.50;58.80;;;;;;5027971;28;20033;-65
2022/11/20 08:37:48;;;;;;;1.75;1.10;;;20.50;58.90;;;;;;5032221;28;20102;-66
2022/11/20 08:40:14;;;;;;;1.85;1.10;;;20.50;58.80;;;;;;5038089;28;20461;-67
2022/11/20 08:42:47;;;;;;;1.73;1.10;;;20.50;58.80;;;;;;5034391;28;20112;-66
2022/11/20 08:45:13;;;;;;;3.00;1.23;;;20.50;58.90;;;;;;5031587;28;20022;-65
2022/11/20 08:47:39;;;;;;;1.98;1.20;;;20.50;58.90;;;;;;5022892;28;20032;-66
2022/11/20 08:50:05;;;;;;;1.77;1.17;;;20.50;58.90;;;;;;5036622;28;20041;-65
2022/11/20 08:52:30;;;;;;;2.15;1.20;;;20.50;58.90;;;;;;5037371;28;20030;-65
2022/11/20 08:54:56;;;;;;;2.22;1.05;;;20.50;58.90;;;;;;5038173;28;20333;-65
2022/11/20 08:57:21;;;;;;;1.95;1.15;;;20.50;58.90;;;;;;5032785;28;20026;-65
2022/11/20 08:59:47;;;;;;;1.88;1.02;;;20.40;58.80;;;;;;5041621;28;20029;-65
2022/11/20 09:02:12;;;;;;;2.17;1.20;;;20.50;59.00;;;;;;5042140;28;20435;-65
2022/11/20 09:04:38;;;;;;;1.98;1.20;;;20.40;58.90;;;;;;5036054;28;20032;-65
2022/11/20 09:07:04;;;;;;;2.28;1.00;;;20.40;58.90;;;;;;5037863;28;20119;-66
2022/11/20 09:09:29;;;;;;;1.75;1.02;;;20.40;59.00;;;;;;5036242;28;20765;-64
2022/11/20 09:11:55;;;;;;;2.00;1.13;;;20.40;58.90;;;;;;5034142;28;20029;-66
2022/11/20 09:14:21;;;;;;;3.47;1.40;;;20.40;59.00;;;;;;5037328;28;20500;-66
2022/11/20 09:16:46;;;;;;;1.83;1.10;;;20.40;59.00;;;;;;5047126;28;20021;-65
2022/11/20 09:19:12;;;;;;;1.70;1.02;;;20.50;59.50;;;;;;5029198;28;20032;-66
2022/11/20 09:21:38;;;;;;;1.40;1.10;;;20.50;59.60;;;;;;5044053;28;20082;-65
2022/11/20 09:24:05;;;;;;;1.65;1.10;;;20.60;59.70;;;;;;5043916;28;20037;-66
2022/11/20 09:26:30;;;;;;;1.80;1.10;;;20.60;59.50;;;;;;5044399;28;20049;-67
2022/11/20 09:28:56;;;;;;;1.63;1.00;;;20.60;59.60;;;;;;5053597;28;20472;-65
2022/11/20 09:31:24;;;;;;;2.67;1.25;;;20.70;59.50;;;;;;5049872;28;20029;-65
2022/11/20 09:33:50;;;;;;;1.83;1.02;;;20.80;59.30;;;;;;5044587;28;20034;-65
2022/11/20 09:36:18;;;;;;;2.25;1.20;;;20.90;59.20;;;;;;5032941;28;20036;-66
2022/11/20 09:38:46;;;;;;;2.15;1.23;;;21.00;59.00;;;;;;5052239;28;20096;-66
2022/11/20 09:41:33;;;;;;;2.33;1.30;;;21.00;58.90;;;;;;5039846;28;20426;-65
2022/11/20 09:44:13;;;;;;;1.95;1.10;;;21.20;58.60;;;;;;5016044;28;20107;-66
2022/11/20 09:46:54;;;;;;;2.58;1.35;;;21.20;58.40;;;;;;5046164;28;20026;-66
2022/11/20 09:49:26;;;;;;;2.72;1.40;;;21.40;58.10;;;;;;5035305;28;20085;-67
2022/11/20 09:52:00;;;;;;;1.88;1.13;;;21.40;57.90;;;;;;5048389;28;20033;-66
2022/11/20 09:54:34;;;;;;;2.72;1.30;;;21.50;57.70;;;;;;5040135;28;20112;-66
2022/11/20 09:57:05;;;;;;;2.78;1.35;;;21.60;57.50;;;;;;5041633;28;20474;-66
2022/11/20 09:59:43;;;;;;;2.60;1.38;;;21.70;57.20;;;;;;5046159;28;20121;-65
2022/11/20 10:02:24;;;;;;;2.83;1.38;;;21.80;57.10;;;;;;5045043;28;20554;-65
2022/11/20 10:05:13;;;;;;;2.33;1.20;;;21.80;56.90;;;;;;5032906;28;20026;-66
2022/11/20 10:07:57;;;;;;;1.83;1.20;;;21.90;57.00;;;;;;5046937;28;20032;-66
2022/11/20 10:10:33;;;;;;;1.98;1.30;;;21.90;56.70;;;;;;5046938;28;20080;-65
2022/11/20 10:13:10;;;;;;;2.60;1.35;;;21.90;56.80;;;;;;5043474;28;20511;-65
2022/11/20 10:15:46;;;;;;;2.78;1.38;;;22.00;56.80;;;;;;5042795;28;20087;-66
2022/11/20 10:18:15;;;;;;;5.85;2.38;;;22.00;56.50;;;;;;5048131;28;20476;-65
2022/11/20 10:20:43;;;;;;;8.00;3.42;;;22.10;56.30;;;;;;5039002;28;20117;-66
2022/11/20 10:23:56;;;;;;;10.60;4.03;;;22.20;56.30;;;;;;5044380;28;20029;-65
2022/11/20 10:26:45;;;;;;;9.13;4.25;;;22.20;56.10;;;;;;5037513;28;20034;-66
2022/11/20 10:29:19;;;;;;;8.77;3.70;;;22.30;56.00;;;;;;5045640;28;20079;-66
2022/11/20 10:31:49;;;;;;;7.55;3.35;;;22.40;56.00;;;;;;5043327;28;20053;-66
2022/11/20 10:34:33;;;;;;;9.10;4.30;;;22.50;55.90;;;;;;5038347;28;20025;-67
2022/11/20 10:37:04;;;;;;;7.97;4.00;;;22.50;55.70;;;;;;5046450;28;20031;-66
2022/11/20 10:39:39;;;;;;;8.25;3.92;;;22.60;55.60;;;;;;5037055;28;20063;-66
2022/11/20 10:42:10;;;;;;;8.75;3.90;;;22.60;55.50;;;;;;5035579;28;20065;-66
2022/11/20 10:47:25;;;;;;;9.55;4.13;;;22.80;55.30;;;;;;5039401;28;20416;-65
2022/11/20 10:49:57;;;;;;;10.15;3.95;;;22.90;55.40;;;;;;5034731;28;20128;-66
2022/11/20 10:52:43;;;;;;;8.40;3.83;;;22.90;54.90;;;;;;5031959;28;20021;-66
2022/11/20 10:56:00;;;;;;;10.20;4.03;;;22.90;54.70;;;;;;5032249;28;20441;-65
2022/11/20 10:58:47;;;;;;;10.05;3.97;;;23.00;54.70;;;;;;4978711;28;20093;-65
2022/11/20 11:01:18;;;;;;;10.38;4.13;;;23.00;54.60;;;;;;5034565;28;20037;-66
2022/11/20 11:03:44;;;;;;;9.52;3.78;;;23.00;54.50;;;;;;5036977;28;20061;-67
2022/11/20 11:06:28;;;;;;;8.05;4.30;;;23.00;55.00;;;;;;5037188;28;20503;-66
2022/11/20 11:08:58;;;;;;;9.65;3.95;;;22.90;54.40;;;;;;5036780;28;20076;-65
2022/11/20 11:11:30;;;;;;;9.00;4.00;;;22.90;54.40;;;;;;5035880;28;20040;-65
2022/11/20 11:14:11;;;;;;;7.38;3.58;;;22.90;54.30;;;;;;5040716;28;20040;-66
2022/11/20 11:16:56;;;;;;;7.90;3.58;;;22.90;54.20;;;;;;5020763;28;20098;-67
2022/11/20 11:19:22;;;;;;;9.23;3.50;;;22.90;54.20;;;;;;5026633;28;20017;-67
2022/11/20 11:21:52;;;;;;;9.38;3.90;;;22.90;54.00;;;;;;5040265;28;20034;-66
2022/11/20 11:24:21;;;;;;;8.50;3.47;;;22.80;54.10;;;;;;5032588;28;20480;-67
2022/11/20 11:27:17;;;;;;;8.30;4.13;;;22.80;54.10;;;;;;5036927;28;20017;-66
2022/11/20 11:29:43;;;;;;;7.88;3.63;;;22.80;54.10;;;;;;5024664;28;20095;-65
2022/11/20 11:32:14;;;;;;;8.90;3.50;;;22.80;54.10;;;;;;5025542;28;20034;-66
2022/11/20 11:34:40;;;;;;;7.40;3.55;;;22.70;54.10;;;;;;5028168;28;20477;-66
2022/11/20 11:37:14;;;;;;;7.90;3.35;;;22.70;54.10;;;;;;5028969;28;20044;-67
2022/11/20 11:39:42;;;;;;;8.60;3.63;;;22.70;54.20;;;;;;5034633;28;20400;-67
2022/11/20 11:42:13;;;;;;;9.43;3.95;;;22.70;54.30;;;;;;5032137;28;20041;-66
2022/11/20 11:47:42;;;;;;;6.57;2.90;;;22.60;54.90;;;;;;5036080;28;20080;-66
2022/11/20 11:50:08;;;;;;;;;;;22.60;54.50;;;;;;5038027;28;20161;-66
2022/11/20 11:52:45;;;;;;;7.68;3.28;;;22.60;54.60;;;;;;5035592;28;19909;-66
2022/11/20 11:55:24;;;;;;;7.40;3.10;;;22.60;54.80;;;;;;5031937;28;20041;-66
2022/11/20 11:58:00;;;;;;;7.20;2.97;;;22.60;54.90;;;;;;5033325;28;20204;-66
2022/11/20 12:00:26;;;;;;;7.55;3.50;;;22.50;55.00;;;;;;5036585;28;20026;-67
2022/11/20 12:03:19;;;;;;;5.82;2.70;;;22.50;55.10;;;;;;5033926;28;20120;-66
2022/11/20 12:05:57;;;;;;;6.75;2.90;;;22.50;55.10;;;;;;5033103;28;20032;-66
2022/11/20 12:08:41;;;;;;;6.38;2.78;;;22.50;55.30;;;;;;5027616;28;20030;-67
2022/11/20 12:11:17;;;;;;;6.35;3.08;;;22.40;55.30;;;;;;5017619;28;20024;-66
2022/11/20 12:14:04;;;;;;;6.47;2.80;;;22.40;55.30;;;;;;5032445;28;20480;-65
2022/11/20 12:16:36;;;;;;;7.00;2.70;;;22.40;55.40;;;;;;5016420;28;20401;-66
2022/11/20 12:19:04;;;;;;;5.90;2.88;;;22.30;55.40;;;;;;5039094;28;20032;-66
2022/11/20 12:21:50;;;;;;;5.53;2.40;;;22.30;55.40;;;;;;5036829;28;20389;-65
2022/11/20 12:24:51;;;;;;;6.30;2.63;;;22.30;55.40;;;;;;5029869;28;20037;-65
2022/11/20 12:27:26;;;;;;;5.43;2.35;;;22.30;55.50;;;;;;5004972;28;20040;-66
2022/11/20 12:30:03;;;;;;;6.57;2.75;;;22.30;55.50;;;;;;5031231;28;20038;-66
2022/11/20 12:33:06;;;;;;;6.22;2.50;;;22.20;55.60;;;;;;5029777;28;20048;-67
2022/11/20 12:35:54;;;;;;;6.68;2.97;;;22.20;55.60;;;;;;5036851;28;20120;-65
2022/11/20 12:38:29;;;;;;;5.57;2.70;;;22.20;55.70;;;;;;5035466;28;20374;-66
2022/11/20 12:47:28;;;;;;;6.03;2.60;;;22.20;55.90;;;;;;5030217;28;20057;-66
2022/11/20 12:50:02;;;;;;;5.47;2.63;;;22.10;56.00;;;;;;5034126;28;20032;-66
2022/11/20 12:52:50;;;;;;;7.03;2.58;;;22.10;56.00;;;;;;5028662;28;20045;-65
2022/11/20 12:55:25;;;;;;;7.15;2.78;;;22.10;56.00;;;;;;5036366;28;20473;-66
2022/11/20 12:58:26;;;;;;;5.82;2.70;;;22.10;56.10;;;;;;5039568;28;20040;-66
2022/11/20 13:01:39;;;;;;;5.47;2.47;;;22.00;56.10;;;;;;5032547;28;20499;-66
2022/11/20 13:04:13;;;;;;;6.32;2.55;;;22.00;56.20;;;;;;5029588;28;20021;-66
2022/11/20 13:06:41;;;;;;;6.15;2.67;;;22.00;56.30;;;;;;5031217;28;20080;-67
2022/11/20 13:09:10;;;;;;;4.63;2.20;;;22.00;56.30;;;;;;5032788;28;20100;-67
2022/11/20 13:11:36;;;;;;;;;;;22.00;56.30;;;;;;5029301;28;20021;-65
2022/11/20 13:14:30;;;;;;;5.22;2.35;;;22.00;56.30;;;;;;5027852;28;19910;-66
2022/11/20 13:17:14;;;;;;;5.78;2.40;;;22.00;56.30;;;;;;5025061;28;20124;-66